Time;durP1;ratioP1;P1;durP2;ratioP2;P2;SDS_P1;SDS_P2;PMS_P1;PMS_P2;Temp;Humidity;BMP_temperature;BMP_pressure;BME280_temperature;BME280_humidity;BME280_pressure;Samples;Min_cycle;Max_cycle;Signal;HPM_P1;HPM_P2
2022/04/12 00:00:27;;;;;;;4.87;3.30;;;;;;;4.78;100.00;61315.53;5092301;28;20518;-72
2022/04/12 00:02:54;;;;;;;7.47;3.70;;;;;;;4.81;100.00;61321.78;5092170;28;20441;-71
2022/04/12 00:05:21;;;;;;;7.57;3.10;;;;;;;4.83;100.00;61323.41;5092035;28;20450;-72
2022/04/12 00:07:49;;;;;;;4.87;2.90;;;;;;;4.73;100.00;61317.81;5092510;28;20473;-71
2022/04/12 00:10:16;;;;;;;4.47;3.20;;;;;;;4.79;100.00;61319.16;5092151;28;20442;-71
2022/04/12 00:12:44;;;;;;;4.13;3.13;;;;;;;4.69;100.00;61303.44;5092067;28;20448;-72
2022/04/12 00:15:13;;;;;;;6.70;3.90;;;;;;;4.72;100.00;61309.16;5092641;28;20847;-71
2022/04/12 00:20:26;;;;;;;4.30;3.07;;;;;;;4.73;100.00;61310.22;5092258;28;20421;-71
2022/04/12 00:22:54;;;;;;;7.77;3.77;;;;;;;4.60;100.00;61296.38;5092105;28;20452;-71
2022/04/12 00:25:22;;;;;;;6.20;3.07;;;;;;;3.97;100.00;61224.81;5091777;28;20486;-71
2022/04/12 00:27:50;;;;;;;9.93;3.17;;;;;;;4.56;100.00;61297.16;5092915;28;20477;-71
2022/04/12 00:30:18;;;;;;;7.63;3.20;;;;;;;4.39;100.00;61274.03;5091758;28;21001;-72
2022/04/12 00:32:46;;;;;;;5.40;3.30;;;;;;;4.26;100.00;61261.25;5091485;28;20790;-72
2022/04/12 00:35:14;;;;;;;4.87;3.20;;;;;;;4.31;100.00;61268.56;5092039;28;20483;-73
2022/04/12 00:37:40;;;;;;;7.03;3.30;;;;;;;4.23;100.00;61258.06;5092549;28;20594;-71
2022/04/12 00:40:11;;;;;;;11.43;4.53;;;;;;;3.68;100.00;61194.50;5091693;28;20442;-70
2022/04/12 00:42:37;;;;;;;9.50;4.17;;;;;;;4.20;100.00;61254.88;5091660;28;20445;-70
2022/04/12 00:45:05;;;;;;;10.47;4.10;;;;;;;4.14;100.00;61248.50;5092176;28;20487;-70
2022/04/12 00:47:32;;;;;;;14.73;4.27;;;;;;;4.04;100.00;61237.84;5091692;28;20433;-71
2022/04/12 00:49:59;;;;;;;7.70;4.10;;;;;;;3.29;100.00;61158.06;5091608;28;20450;-72
2022/04/12 00:52:28;;;;;;;10.50;4.90;;;;;;;4.03;100.00;61236.78;5091689;28;20442;-71
2022/04/12 00:54:55;;;;;;;13.13;4.90;;;;;;;3.96;100.00;61231.84;5091646;28;20473;-72
2022/04/12 00:57:24;;;;;;;9.20;4.97;;;;;;;3.81;100.00;61213.38;5091671;28;20441;-71
2022/04/12 00:59:54;;;;;;;9.83;5.90;;;;;;;3.74;100.00;61205.41;5091676;28;20452;-71
2022/04/12 01:02:22;;;;;;;12.50;6.00;;;;;;;2.74;100.00;61097.09;5091682;28;20440;-72
2022/04/12 01:04:49;;;;;;;9.40;5.73;;;;;;;3.22;100.00;61148.13;5095653;28;20437;-70
2022/04/12 01:07:15;;;;;;;12.40;5.70;;;;;;;2.99;100.00;61126.16;5096027;28;20438;-70
2022/04/12 01:09:42;;;;;;;14.13;6.13;;;;;;;2.93;100.00;61119.78;5094276;28;20895;-71
2022/04/12 01:12:11;;;;;;;12.53;5.83;;;;;;;2.91;100.00;61117.66;5095509;28;20441;-72
2022/04/12 01:14:39;;;;;;;11.57;6.43;;;;;;;3.16;100.00;61144.25;5095498;28;20465;-70
2022/04/12 01:17:08;;;;;;;10.73;5.73;;;;;;;3.03;100.00;61130.44;5095296;28;20989;-71
2022/04/12 01:19:35;;;;;;;13.60;6.00;;;;;;;2.95;100.00;61119.41;5094705;28;20434;-70
2022/04/12 01:22:05;;;;;;;10.60;6.33;;;;;;;2.95;100.00;61124.44;5095285;28;20510;-72
2022/04/12 01:24:34;;;;;;;15.10;6.73;;;;;;;2.98;100.00;61125.13;5095529;28;20425;-71
2022/04/12 01:27:01;;;;;;;16.13;6.47;;;;;;;2.19;100.00;61037.22;5095423;28;20449;-71
2022/04/12 01:29:36;;;;;;;16.67;6.33;;;;;;;2.88;100.00;61115.00;5094966;28;20542;-71
2022/04/12 01:32:07;;;;;;;9.37;6.10;;;;;;;2.89;100.00;61113.03;5094925;28;20441;-72
2022/04/12 01:34:34;;;;;;;9.60;5.80;;;;;;;2.48;100.00;61073.03;5095377;28;20561;-72
2022/04/12 01:37:02;;;;;;;11.17;6.37;;;;;;;2.79;100.00;61104.91;5094366;28;20964;-71
2022/04/12 01:39:29;;;;;;;15.30;6.90;;;;;;;2.53;100.00;61078.38;5095575;28;20521;-70
2022/04/12 01:41:57;;;;;;;10.23;6.30;;;;;;;2.67;100.00;61092.16;5094731;28;20499;-71
2022/04/12 01:44:24;;;;;;;9.87;6.13;;;;;;;2.42;100.00;61066.66;5094844;28;20429;-72
2022/04/12 01:46:52;;;;;;;16.93;6.40;;;;;;;2.40;100.00;61066.53;5094691;28;21067;-72
2022/04/12 01:49:19;;;;;;;11.40;6.47;;;;;;;2.30;100.00;61053.94;5094592;28;20534;-72
2022/04/12 01:51:45;;;;;;;15.00;6.40;;;;;;;2.17;100.00;61037.09;5094442;28;20433;-72
2022/04/12 01:54:12;;;;;;;13.03;6.00;;;;;;;1.26;100.00;60943.53;5094867;28;20510;-71
2022/04/12 01:56:39;;;;;;;9.77;6.37;;;;;;;2.20;100.00;61043.31;5094697;28;20437;-71
2022/04/12 01:59:07;;;;;;;11.33;6.40;;;;;;;2.25;100.00;61043.06;5094523;28;20525;-71
2022/04/12 02:01:34;;;;;;;13.83;6.37;;;;;;;2.18;100.00;61041.19;5094401;28;20430;-72
2022/04/12 02:04:00;;;;;;;8.50;5.80;;;;;;;2.33;100.00;61057.13;5095088;28;20567;-71
2022/04/12 02:06:28;;;;;;;11.93;6.50;;;;;;;2.24;100.00;61047.00;5094330;28;20441;-71
2022/04/12 02:08:55;;;;;;;11.40;5.83;;;;;;;2.27;100.00;61050.75;5094376;28;20919;-71
2022/04/12 02:11:22;;;;;;;12.00;6.20;;;;;;;2.33;100.00;61056.59;5094439;28;20434;-72
2022/04/12 02:13:49;;;;;;;10.30;5.63;;;;;;;2.39;100.00;61062.97;5094143;28;20477;-71
2022/04/12 02:16:18;;;;;;;9.87;5.20;;;;;;;2.40;100.00;61064.53;5094067;28;20441;-71
2022/04/12 02:18:44;;;;;;;8.43;4.33;;;;;;;2.34;100.00;61058.19;5094176;28;20529;-72
2022/04/12 02:21:11;;;;;;;8.00;4.43;;;;;;;2.28;100.00;61051.81;5093855;28;20446;-70
2022/04/12 02:23:38;;;;;;;13.73;4.40;;;;;;;2.28;100.00;61046.78;5093893;28;20442;-71
2022/04/12 02:26:04;;;;;;;9.63;5.23;;;;;;;2.04;100.00;61026.31;5094021;28;20460;-71
2022/04/12 02:28:32;;;;;;;13.33;5.40;;;;;;;2.33;100.00;61054.59;5093715;28;20485;-70
2022/04/12 02:30:59;;;;;;;8.43;5.00;;;;;;;2.28;100.00;61049.28;5093821;28;20468;-71
2022/04/12 02:33:28;;;;;;;8.33;4.73;;;;;;;2.29;100.00;61052.88;5093581;28;20495;-72
2022/04/12 02:35:54;;;;;;;8.93;4.83;;;;;;;2.27;100.00;61050.75;5094107;28;20864;-71
2022/04/12 02:38:21;;;;;;;14.23;5.50;;;;;;;2.30;100.00;61055.91;5093671;28;20506;-71
2022/04/12 02:40:48;;;;;;;10.90;5.00;;;;;;;2.23;100.00;61046.50;5093124;28;21030;-71
2022/04/12 02:43:14;;;;;;;9.23;4.80;;;;;;;2.21;100.00;61041.88;5093518;28;20519;-70
2022/04/12 02:45:41;;;;;;;9.33;5.10;;;;;;;2.21;100.00;61048.88;5093402;28;20445;-71
2022/04/12 02:48:11;;;;;;;9.67;5.17;;;;;;;2.04;100.00;61028.28;5093271;28;20446;-71
2022/04/12 02:50:40;;;;;;;8.27;4.53;;;;;;;2.19;100.00;61039.19;5092927;28;20441;-71
2022/04/12 02:53:07;;;;;;;9.97;4.80;;;;;;;0.96;100.00;60916.72;5093719;28;20800;-72
2022/04/12 02:55:34;;;;;;;12.93;5.03;;;;;;;1.70;100.00;60995.25;5093404;28;20446;-71
2022/04/12 02:58:01;;;;;;;13.03;5.00;;;;;;;1.79;100.00;60999.78;5093321;28;20434;-71
2022/04/12 03:00:29;;;;;;;17.17;5.40;;;;;;;1.71;100.00;60996.31;5093172;28;20433;-71
2022/04/12 03:02:55;;;;;;;13.70;5.40;;;;;;;1.56;100.00;60970.34;5093657;28;20834;-70
2022/04/12 03:05:22;;;;;;;13.27;5.90;;;;;;;1.81;100.00;61001.91;5093485;28;20503;-71
2022/04/12 03:07:51;;;;;;;12.47;6.27;;;;;;;1.90;100.00;61011.44;5093254;28;20445;-72
2022/04/12 03:10:18;;;;;;;12.97;5.50;;;;;;;1.85;100.00;61008.66;5092971;28;21072;-72
2022/04/12 03:12:44;;;;;;;10.33;6.50;;;;;;;1.81;100.00;61001.91;5092582;28;20454;-71
2022/04/12 03:15:11;;;;;;;10.83;5.63;;;;;;;1.73;100.00;60993.41;5092765;28;20956;-70
2022/04/12 03:17:38;;;;;;;13.70;5.77;;;;;;;1.80;100.00;61000.31;5093125;28;20438;-72
2022/04/12 03:20:05;;;;;;;15.23;7.17;;;;;;;1.77;100.00;60995.16;5092954;28;20885;-72
2022/04/12 03:22:32;;;;;;;21.43;11.53;;;;;;;1.73;100.00;60990.91;5092872;28;20466;-71
2022/04/12 03:25:02;;;;;;;17.53;7.70;;;;;;;1.64;100.00;60984.38;5092618;28;20449;-71
2022/04/12 03:27:28;;;;;;;22.47;11.87;;;;;;;1.63;100.00;60982.81;5092651;28;20449;-72
2022/04/12 03:29:56;;;;;;;27.27;8.67;;;;;;;1.40;100.00;60955.88;5092622;28;20481;-72
2022/04/12 03:32:23;;;;;;;23.27;8.13;;;;;;;1.29;100.00;60944.22;5092389;28;20951;-72
2022/04/12 03:34:50;;;;;;;29.53;7.90;;;;;;;1.61;100.00;60980.69;5092594;28;20999;-71
2022/04/12 03:37:17;;;;;;;17.87;8.43;;;;;;;1.57;100.00;60971.41;5092645;28;20444;-72
2022/04/12 03:39:45;;;;;;;21.73;7.80;;;;;;;1.60;100.00;60979.59;5092513;28;20454;-71
2022/04/12 03:42:13;;;;;;;20.43;7.10;;;;;;;1.70;100.00;60990.75;5092403;28;20479;-71
2022/04/12 03:44:40;;;;;;;19.23;6.97;;;;;;;1.65;100.00;60984.94;5092361;28;20962;-71
2022/04/12 03:47:08;;;;;;;25.93;12.57;;;;;;;1.55;100.00;60972.31;5092428;28;20518;-71
2022/04/12 03:49:35;;;;;;;29.87;12.80;;;;;;;1.52;100.00;60971.66;5092574;28;20531;-73
2022/04/12 03:52:01;;;;;;;22.73;11.60;;;;;;;1.42;100.00;60961.03;5092335;28;20491;-72
2022/04/12 03:54:30;;;;;;;35.43;11.53;;;;;;;1.48;100.00;60966.88;5092394;28;20504;-71
2022/04/12 03:56:56;;;;;;;15.00;6.93;;;;;;;1.57;100.00;60976.44;5092332;28;20491;-70
2022/04/12 03:59:25;;;;;;;18.63;7.80;;;;;;;1.66;100.00;60980.97;5092139;28;20438;-72
2022/04/12 04:01:52;;;;;;;18.50;8.47;;;;;;;1.20;100.00;60932.16;5092142;28;20505;-71
2022/04/12 04:04:19;;;;;;;23.33;8.17;;;;;;;1.80;100.00;61000.84;5092231;28;20437;-72
2022/04/12 04:06:46;;;;;;;24.50;7.80;;;;;;;1.88;100.00;61008.78;5091783;28;20510;-71
2022/04/12 04:09:13;;;;;;;29.07;7.83;;;;;;;1.94;100.00;61015.16;5091895;28;20473;-73
2022/04/12 04:11:40;;;;;;;33.23;9.43;;;;;;;1.89;100.00;61010.41;5091794;28;20941;-72
2022/04/12 04:14:09;;;;;;;20.03;8.80;;;;;;;1.83;100.00;61004.03;5091825;28;20597;-72
2022/04/12 04:16:37;;;;;;;49.67;11.37;;;;;;;0.84;100.00;60900.06;5091680;28;20437;-72
2022/04/12 04:19:04;;;;;;;13.60;5.27;;;;;;;2.15;100.00;61037.47;5091892;28;20441;-72
2022/04/12 04:21:31;;;;;;;20.27;6.00;;;;;;;2.18;100.00;61036.16;5091758;28;20441;-71
2022/04/12 04:23:58;;;;;;;19.10;6.33;;;;;;;2.38;100.00;61061.88;5092029;28;20434;-71
2022/04/12 04:26:25;;;;;;;16.47;5.00;;;;;;;2.08;100.00;61030.03;5091784;28;20940;-71
2022/04/12 04:28:52;;;;;;;20.20;8.90;;;;;;;2.28;100.00;61051.81;5091829;28;20940;-71
2022/04/12 04:31:18;;;;;;;35.97;11.70;;;;;;;2.42;100.00;61061.66;5092498;28;20510;-72
2022/04/12 04:33:47;;;;;;;23.90;12.30;;;;;;;1.86;100.00;61007.22;5091621;28;20477;-71
2022/04/12 04:36:14;;;;;;;27.73;12.13;;;;;;;2.24;100.00;61047.56;5091841;28;20449;-71
2022/04/12 04:38:40;;;;;;;36.13;12.30;;;;;;;2.50;100.00;61075.16;5094053;28;20944;-71
2022/04/12 04:41:07;;;;;;;27.93;10.73;;;;;;;2.35;100.00;61061.22;5095960;28;20433;-71
2022/04/12 04:43:35;;;;;;;27.87;11.20;;;;;;;2.73;100.00;61098.53;5096042;28;20825;-71
2022/04/12 04:46:02;;;;;;;24.73;13.10;;;;;;;2.73;100.00;61098.53;5097019;28;20445;-70
2022/04/12 04:48:29;;;;;;;37.60;16.70;;;;;;;2.76;100.00;61102.25;5095908;28;20465;-71
2022/04/12 04:50:59;;;;;;;36.93;18.00;;;;;;;2.91;100.00;61117.66;5096220;28;20527;-71
2022/04/12 04:53:26;;;;;;;47.30;17.57;;;;;;;3.06;100.00;61133.63;5095865;28;20437;-71
2022/04/12 04:55:52;;;;;;;49.93;17.57;;;;;;;3.01;100.00;61128.84;5095540;28;20449;-71
2022/04/12 04:58:20;;;;;;;43.93;19.10;;;;;;;2.58;100.00;61082.63;5095669;28;20433;-72
2022/04/12 05:00:48;;;;;;;30.70;11.57;;;;;;;3.33;100.00;61164.84;5095502;28;20433;-70
2022/04/12 05:03:15;;;;;;;25.07;10.03;;;;;;;3.57;100.00;61184.78;5095395;28;20442;-71
2022/04/12 05:05:42;;;;;;;18.43;9.30;;;;;;;3.79;100.00;61208.19;5095174;28;20441;-71
2022/04/12 05:08:10;;;;;;;24.50;9.10;;;;;;;3.78;100.00;61210.19;5095380;28;20446;-72
2022/04/12 05:10:37;;;;;;;13.70;6.77;;;;;;;3.89;100.00;61221.88;5095355;28;20477;-71
2022/04/12 05:13:04;;;;;;;10.80;5.97;;;;;;;4.17;100.00;61251.66;5095255;28;20446;-72
2022/04/12 05:15:31;;;;;;;15.13;5.90;;;;;;;3.64;100.00;61200.34;5095269;28;20442;-71
2022/04/12 05:17:58;;;;;;;25.43;6.50;;;;;;;4.54;100.00;61288.00;5094879;28;20502;-71
2022/04/12 05:20:26;;;;;;;17.67;6.80;;;;;;;4.73;100.00;61310.75;5094940;28;20495;-70
2022/04/12 05:22:53;;;;;;;12.17;6.83;;;;;;;4.33;100.00;61262.59;5095225;28;20510;-72
2022/04/12 05:25:22;;;;;;;21.50;9.47;;;;;;;4.54;100.00;61295.03;5095465;28;20442;-72
2022/04/12 05:27:49;;;;;;;20.77;9.53;;;;;;;5.49;100.00;61391.19;5095389;28;20499;-71
2022/04/12 05:30:17;;;;;;;21.43;9.60;;;;;;;5.45;100.00;61386.94;5094941;28;20511;-72
2022/04/12 05:32:44;;;;;;;24.53;9.47;;;;;;;5.82;100.00;61425.81;5094537;28;20441;-71
2022/04/12 05:35:12;;;;;;;15.73;8.80;;;;;;;6.04;100.00;61448.78;5094832;28;20434;-71
2022/04/12 05:37:43;;;;;;;19.97;9.67;;;;;;;6.29;100.00;61477.97;5094744;28;20437;-71
2022/04/12 05:40:11;;;;;;;32.43;11.87;;;;;;;6.48;100.00;61498.75;5094959;28;20450;-71
2022/04/12 05:42:40;;;;;;;21.10;11.73;;;;;;;6.79;100.00;61528.78;5094676;28;20437;-71
2022/04/12 05:45:07;;;;;;;22.00;11.37;;;;;;;6.60;100.00;61511.03;5094646;28;20479;-71
2022/04/12 05:47:42;;;;;;;29.60;13.80;;;;;;;6.58;100.00;61508.91;5094502;28;20997;-71
2022/04/12 05:50:10;;;;;;;31.73;14.97;;;;;;;6.58;100.00;61503.84;5094195;28;20852;-72
2022/04/12 05:52:38;;;;;;;30.67;12.60;;;;;;;6.70;100.00;61519.19;5094427;28;20496;-71
2022/04/12 05:55:06;;;;;;;17.67;9.37;;;;;;;6.76;100.00;61525.59;5094348;28;20951;-73
2022/04/12 05:57:37;;;;;;;18.37;8.07;;;;;;;6.41;100.00;61493.28;5094390;28;20503;-71
2022/04/12 06:00:09;;;;;;;15.60;7.40;;;;;;;7.24;100.00;61576.81;5094151;28;20528;-71
2022/04/12 06:02:36;;;;;;;21.97;8.00;;;;;;;7.41;100.00;61596.94;5094412;28;20453;-72
2022/04/12 06:05:03;;;;;;;18.87;7.23;;;;;;;7.37;100.00;61590.69;5094103;28;20441;-70
2022/04/12 06:07:34;;;;;;;18.07;8.30;;;;;;;7.39;100.00;61587.75;5094491;28;20518;-71
2022/04/12 06:10:01;;;;;;;14.97;7.83;;;;;;;7.31;100.00;61578.69;5094353;28;20481;-71
2022/04/12 06:12:28;;;;;;;14.83;8.30;;;;;;;7.49;100.00;61598.44;5094032;28;20438;-72
2022/04/12 06:14:55;;;;;;;12.67;7.13;;;;;;;7.83;100.00;61639.28;5094082;28;20515;-71
2022/04/12 06:17:29;;;;;;;20.03;7.80;;;;;;;7.89;100.00;61647.69;5093978;28;20445;-71
2022/04/12 06:20:01;;;;;;;26.27;8.07;;;;;;;8.00;100.00;61656.91;5094038;28;20448;-72
2022/04/12 06:22:28;;;;;;;15.37;7.40;;;;;;;8.18;100.00;61673.59;5094239;28;20465;-71
2022/04/12 06:24:54;;;;;;;16.47;7.70;;;;;;;8.26;100.00;61682.72;5093593;28;20940;-72
2022/04/12 06:27:29;;;;;;;14.60;6.87;;;;;;;8.29;100.00;61690.47;5093483;28;20450;-72
2022/04/12 06:29:57;;;;;;;16.70;5.60;;;;;;;8.17;100.00;61672.53;5093949;28;20472;-72
2022/04/12 06:32:25;;;;;;;9.77;5.13;;;;;;;8.34;100.00;61693.25;5093610;28;20467;-71
2022/04/12 06:34:52;;;;;;;9.33;5.37;;;;;;;8.57;100.00;61717.88;5093993;28;20481;-70
2022/04/12 06:37:20;;;;;;;16.50;5.43;;;;;;;8.58;100.00;61718.38;5094365;28;20844;-72
2022/04/12 06:39:47;;;;;;;11.00;5.57;;;;;;;8.64;100.00;61724.78;5093384;28;20864;-72
2022/04/12 06:42:13;;;;;;;14.00;6.30;;;;;;;8.64;100.00;61725.34;5093587;28;20445;-71
2022/04/12 06:44:41;;;;;;;9.77;5.57;;;;;;;8.64;100.00;61724.78;5093268;28;20434;-72
2022/04/12 06:47:08;;;;;;;8.97;5.10;;;;;;;8.40;100.00;61699.69;5092098;28;20480;-72
2022/04/12 06:49:37;;;;;;;10.87;5.30;;;;;;;8.14;100.00;61674.94;5093225;28;20498;-71
2022/04/12 06:52:04;;;;;;;8.97;5.27;;;;;;;8.24;100.00;61682.56;5093192;28;20445;-72
2022/04/12 06:54:31;;;;;;;9.20;5.20;;;;;;;8.68;100.00;61729.63;5093309;28;20434;-72
2022/04/12 06:56:57;;;;;;;18.50;5.33;;;;;;;9.07;100.00;61768.25;5093272;28;20487;-72
2022/04/12 06:59:25;;;;;;;9.97;4.47;;;;;;;9.42;100.00;61807.72;5093217;28;20869;-72
2022/04/12 07:01:52;;;;;;;13.53;5.03;;;;;;;9.50;100.00;61813.72;5092241;28;20524;-70
2022/04/12 07:04:19;;;;;;;8.17;4.80;;;;;;;9.61;100.00;61828.03;5093397;28;20483;-70
2022/04/12 07:06:47;;;;;;;11.60;5.40;;;;;;;9.71;100.00;61838.72;5093610;28;20786;-71
2022/04/12 07:09:18;;;;;;;15.73;6.13;;;;;;;9.74;100.00;61842.47;5093053;28;20437;-71
2022/04/12 07:11:45;;;;;;;13.40;5.70;;;;;;;9.51;100.00;61817.88;5093588;28;20274;-72
2022/04/12 07:14:12;;;;;;;12.73;5.60;;;;;;;9.94;100.00;61860.81;5092589;28;20465;-72
2022/04/12 07:16:39;;;;;;;10.57;5.73;;;;;;;10.41;100.00;61911.16;5092630;28;20445;-72
2022/04/12 07:19:06;;;;;;;10.87;6.33;;;;;;;10.60;100.00;61931.50;5092897;28;20631;-70
2022/04/12 07:21:33;;;;;;;10.07;5.60;;;;;;;10.75;100.00;61950.13;5092950;28;20195;-71
2022/04/12 07:24:03;;;;;;;47.53;20.97;;;;;;;9.83;100.00;61852.13;5092647;28;20203;-72
2022/04/12 07:26:30;;;;;;;12.67;6.83;;;;;;;10.13;100.00;61883.72;5092647;28;20575;-72
2022/04/12 07:28:57;;;;;;;14.23;7.27;;;;;;;10.51;100.00;61924.41;5092426;28;20262;-71
2022/04/12 07:31:24;;;;;;;13.47;7.20;;;;;;;10.82;100.00;61954.53;5093267;28;20292;-72
2022/04/12 07:33:50;;;;;;;15.63;5.90;;;;;;;11.13;100.00;61984.69;5092288;28;20231;-72
2022/04/12 07:36:17;;;;;;;13.30;6.10;;;;;;;10.71;100.00;61940.75;5092384;28;20260;-71
2022/04/12 07:38:44;;;;;;;12.10;6.83;;;;;;;11.41;100.00;62019.81;5092584;28;20206;-71
2022/04/12 07:41:13;;;;;;;12.33;6.27;;;;;;;11.53;100.00;62033.19;5092134;28;20210;-71
2022/04/12 07:43:39;;;;;;;10.87;6.27;;;;;;;11.87;100.00;62064.06;5092534;28;20264;-72
2022/04/12 07:46:06;;;;;;;18.43;6.53;;;;;;;11.73;100.00;62051.59;5092202;28;20200;-71
2022/04/12 07:48:33;;;;;;;38.33;10.43;;;;;;;11.62;100.00;62042.84;5092741;28;20196;-73
2022/04/12 07:51:00;;;;;;;15.30;7.07;;;;;;;12.03;100.00;62083.75;5092034;28;20693;-72
2022/04/12 07:53:29;;;;;;;11.97;6.07;;;;;;;12.16;100.00;62095.16;5092156;28;20249;-72
2022/04/12 07:55:56;;;;;;;17.20;6.67;;;;;;;12.30;100.00;62112.72;5092308;28;20260;-72
2022/04/12 07:58:24;;;;;;;13.53;6.20;;;;;;;12.72;100.00;62159.81;5092263;28;20192;-72
2022/04/12 08:00:51;;;;;;;13.50;6.30;;;;;;;12.93;100.00;62186.94;5092004;28;20200;-71
2022/04/12 08:03:20;;;;;;;13.87;5.83;;;;;;;12.91;100.00;62174.56;5092211;28;20207;-71
2022/04/12 08:05:47;;;;;;;10.63;5.77;;;;;;;13.04;100.00;62191.13;5092048;28;20207;-72
2022/04/12 08:08:14;;;;;;;9.50;5.57;;;;;;;13.00;100.00;62184.25;5092064;28;20195;-70
2022/04/12 08:10:41;;;;;;;15.80;5.87;;;;;;;12.92;100.00;62180.78;5092113;28;20239;-72
2022/04/12 08:13:08;;;;;;;16.50;6.53;;;;;;;13.28;100.00;62219.44;5091952;28;20264;-72
2022/04/12 08:15:37;;;;;;;14.90;6.80;;;;;;;13.28;100.00;62217.41;5092053;28;20249;-72
2022/04/12 08:18:04;;;;;;;18.33;6.07;;;;;;;13.20;100.00;62206.25;5091876;28;20199;-71
2022/04/12 08:20:31;;;;;;;10.60;5.67;;;;;;;13.61;100.00;62249.78;5091830;28;20248;-71
2022/04/12 08:22:58;;;;;;;9.47;4.80;;;;;;;13.11;100.00;62196.59;5091832;28;20249;-71
2022/04/12 08:25:26;;;;;;;6.40;3.97;;;;;;;13.39;90.58;62228.69;5091879;28;20734;-71
2022/04/12 08:27:52;;;;;;;6.67;3.77;;;;;;;13.71;86.03;62265.63;5092287;28;20196;-72
2022/04/12 08:30:19;;;;;;;5.20;3.00;;;;;;;13.13;74.78;62200.78;5092431;28;20223;-71
2022/04/12 08:32:48;;;;;;;4.80;2.53;;;;;;;11.91;72.21;62073.44;5092274;28;20644;-72
2022/04/12 08:35:15;;;;;;;5.37;3.33;;;;;;;12.58;79.57;62145.34;5091702;28;20211;-72
2022/04/12 08:37:43;;;;;;;3.77;2.37;;;;;;;12.46;81.06;62132.44;5091809;28;20823;-72
2022/04/12 08:40:11;;;;;;;8.93;2.87;;;;;;;13.35;78.61;62224.41;5091700;28;20191;-72
2022/04/12 08:42:38;;;;;;;6.37;2.63;;;;;;;13.42;71.55;62229.38;5091774;28;20641;-71
2022/04/12 08:45:06;;;;;;;6.07;2.93;;;;;;;13.53;72.95;62243.75;5091882;28;20222;-73
2022/04/12 08:47:35;;;;;;;6.30;3.03;;;;;;;13.35;65.47;62224.94;5091630;28;20286;-71
2022/04/12 08:50:08;;;;;;;4.70;2.60;;;;;;;13.25;66.30;62216.22;5091797;28;20196;-72
2022/04/12 08:52:36;;;;;;;6.07;3.03;;;;;;;12.82;67.02;62167.47;5092397;28;20227;-71
2022/04/12 08:55:04;;;;;;;5.97;2.93;;;;;;;13.25;69.77;62213.66;5091685;28;20199;-71
2022/04/12 08:57:31;;;;;;;7.57;2.70;;;;;;;13.49;69.03;62239.44;5091518;28;20200;-71
2022/04/12 08:59:58;;;;;;;6.63;2.23;;;;;;;13.75;69.66;62269.41;5091966;28;20576;-71
2022/04/12 09:02:24;;;;;;;6.70;2.97;;;;;;;14.14;64.08;62311.88;5091197;28;20208;-71
2022/04/12 09:04:51;;;;;;;5.63;2.73;;;;;;;14.34;62.39;62327.72;5091351;28;20199;-71
2022/04/12 09:07:25;;;;;;;6.90;2.70;;;;;;;14.26;61.32;62319.66;5091412;28;20661;-73
2022/04/12 09:09:52;;;;;;;5.90;2.40;;;;;;;14.49;59.35;62348.44;5092007;28;20281;-71
2022/04/12 09:12:19;;;;;;;3.10;2.47;;;;;;;13.99;58.86;62295.19;5091682;28;20223;-71
2022/04/12 09:14:52;;;;;;;3.90;2.43;;;;;;;14.48;58.61;62347.38;5091240;28;20268;-71
2022/04/12 09:17:21;;;;;;;5.03;2.60;;;;;;;14.76;57.42;62374.91;5091800;28;20202;-72
2022/04/12 09:19:51;;;;;;;7.23;3.40;;;;;;;14.46;56.47;62335.50;5091187;28;20670;-72
2022/04/12 09:22:21;;;;;;;6.27;3.20;;;;;;;13.95;58.70;62288.88;5091255;28;20203;-72
2022/04/12 09:24:50;;;;;;;6.17;2.77;;;;;;;14.34;60.21;62328.25;5093441;28;20196;-70
2022/04/12 09:27:20;;;;;;;5.37;2.60;;;;;;;14.70;55.65;62371.56;5094658;28;20199;-72
2022/04/12 09:29:48;;;;;;;3.33;2.33;;;;;;;15.23;53.96;62423.44;5094685;28;20717;-73
2022/04/12 09:32:16;;;;;;;3.30;2.30;;;;;;;15.37;54.03;62434.88;5094613;28;20664;-72
2022/04/12 09:34:44;;;;;;;8.43;2.80;;;;;;;15.85;56.26;62492.25;5095089;28;20228;-72
2022/04/12 09:37:20;;;;;;;6.07;2.70;;;;;;;15.77;54.10;62481.06;5094680;28;20249;-73
2022/04/12 09:40:03;;;;;;;3.40;2.20;;;;;;;15.84;53.88;62493.72;5094512;28;20199;-72
2022/04/12 09:42:54;;;;;;;6.43;2.67;;;;;;;15.78;52.18;62482.13;5093906;28;20645;-72
2022/04/12 09:45:24;;;;;;;7.10;2.40;;;;;;;15.70;52.30;62478.66;5079552;28;20576;-72
2022/04/12 09:47:53;;;;;;;7.10;2.47;;;;;;;15.90;55.25;62502.75;5094393;28;20199;-72
2022/04/12 09:50:22;;;;;;;12.00;2.37;;;;;;;16.00;52.56;62508.41;5094461;28;20200;-72
2022/04/12 09:52:56;;;;;;;2.93;2.10;;;;;;;15.38;54.08;62444.19;5094287;28;20688;-73
2022/04/12 09:55:35;;;;;;;5.20;2.37;;;;;;;15.61;54.50;62468.44;5094382;28;20241;-73
2022/04/12 09:58:02;;;;;;;7.87;2.70;;;;;;;15.96;52.94;62498.94;5094485;28;20192;-71
2022/04/12 10:00:31;;;;;;;4.70;1.90;;;;;;;16.34;53.74;62541.38;5094574;28;20196;-73
2022/04/12 10:02:59;;;;;;;4.30;2.60;;;;;;;16.79;54.38;62587.31;5094330;28;20196;-72
2022/04/12 10:05:26;;;;;;;3.60;2.33;;;;;;;17.02;53.45;62619.81;5093141;28;20199;-73
2022/04/12 10:07:56;;;;;;;5.17;2.63;;;;;;;17.00;53.42;62617.13;5094274;28;20677;-72
2022/04/12 10:10:28;;;;;;;5.47;2.70;;;;;;;17.02;52.50;62614.69;5094207;28;20221;-73
2022/04/12 10:12:56;;;;;;;4.60;2.20;;;;;;;17.32;52.27;62646.47;5094670;28;20195;-72
2022/04/12 10:15:24;;;;;;;2.47;2.17;;;;;;;17.24;50.53;62640.97;5092659;28;20282;-71
2022/04/12 10:17:52;;;;;;;3.00;1.97;;;;;;;16.16;50.65;62524.56;5093791;28;20221;-72
2022/04/12 10:20:20;;;;;;;5.30;2.80;;;;;;;16.06;54.06;62514.84;5093935;28;20230;-71
2022/04/12 10:22:48;;;;;;;3.40;2.03;;;;;;;16.10;52.47;62515.53;5093806;28;20248;-72
2022/04/12 10:25:20;;;;;;;7.57;2.40;;;;;;;16.74;54.09;62587.06;5093606;28;20203;-72
2022/04/12 10:27:47;;;;;;;2.97;2.03;;;;;;;17.37;51.66;62657.56;5094244;28;20200;-71
2022/04/12 10:30:27;;;;;;;3.37;2.03;;;;;;;16.69;46.94;62579.66;5093604;28;20196;-73
2022/04/12 10:33:08;;;;;;;5.77;2.20;;;;;;;16.08;50.46;62521.09;5094004;28;20620;-71
2022/04/12 10:36:02;;;;;;;3.93;2.53;;;;;;;16.35;51.84;62548.13;5092544;28;20196;-73
2022/04/12 10:38:39;;;;;;;6.17;2.40;;;;;;;16.59;52.30;62573.47;5093774;28;20285;-71
2022/04/12 10:41:14;;;;;;;4.13;2.20;;;;;;;17.07;52.01;62622.09;5093570;28;20218;-72
2022/04/12 10:43:41;;;;;;;3.07;2.13;;;;;;;17.49;48.31;62670.50;5094070;28;20276;-71
2022/04/12 10:46:11;;;;;;;4.77;2.30;;;;;;;17.34;52.58;62649.19;5093498;28;20658;-71
2022/04/12 10:48:38;;;;;;;8.83;2.60;;;;;;;17.37;50.92;62654.97;5093432;28;20203;-72
2022/04/12 10:51:06;;;;;;;3.53;1.80;;;;;;;17.04;47.99;62616.84;5093125;28;20284;-71
2022/04/12 10:53:55;;;;;;;3.17;2.03;;;;;;;16.38;49.09;62543.63;5093148;28;20199;-71
2022/04/12 10:56:26;;;;;;;4.97;2.00;;;;;;;17.20;53.62;62636.66;5093386;28;20198;-71
2022/04/12 10:58:53;;;;;;;4.93;2.23;;;;;;;17.68;50.38;62691.00;5093342;28;20762;-71
2022/04/12 11:01:31;;;;;;;2.87;2.20;;;;;;;18.11;50.88;62734.28;5093106;28;20203;-72
2022/04/12 11:03:58;;;;;;;3.90;2.13;;;;;;;18.53;48.08;62777.03;5092857;28;20658;-72
2022/04/12 11:06:26;;;;;;;3.40;2.17;;;;;;;19.06;46.44;62838.34;5093165;28;20196;-72
2022/04/12 11:08:54;;;;;;;6.57;2.60;;;;;;;18.29;45.46;62750.59;5093164;28;20577;-71
2022/04/12 11:11:39;;;;;;;7.90;2.00;;;;;;;18.25;46.09;62746.28;5092887;28;20644;-72
2022/04/12 11:14:25;;;;;;;5.93;2.10;;;;;;;18.40;43.19;62768.16;5092639;28;20669;-72
2022/04/12 11:16:56;;;;;;;6.50;2.10;;;;;;;18.63;42.47;62789.91;5092879;28;20661;-72
2022/04/12 11:19:24;;;;;;;2.37;1.97;;;;;;;18.90;43.23;62819.03;5092801;28;20257;-72
2022/04/12 11:22:00;;;;;;;2.70;1.90;;;;;;;19.04;41.58;62836.75;5092663;28;20200;-72
2022/04/12 11:24:27;;;;;;;5.87;2.07;;;;;;;18.75;43.49;62813.19;5093316;28;20628;-72
2022/04/12 11:27:04;;;;;;;3.90;2.30;;;;;;;19.06;42.85;62838.91;5092849;28;20612;-71
2022/04/12 11:29:31;;;;;;;6.60;2.50;;;;;;;18.86;40.83;62817.31;5093387;28;20260;-72
2022/04/12 11:31:59;;;;;;;3.53;1.80;;;;;;;17.65;41.87;62687.78;5093418;28;20223;-73
2022/04/12 11:34:28;;;;;;;3.27;2.13;;;;;;;17.81;42.59;62703.97;5092736;28;20231;-72